Time;durP1;ratioP1;P1;durP2;ratioP2;P2;SDS_P1;SDS_P2;PMS_P1;PMS_P2;Temp;Humidity;BMP_temperature;BMP_pressure;BME280_temperature;BME280_humidity;BME280_pressure;Samples;Min_cycle;Max_cycle;Signal;HPM_P1;HPM_P2
2022/10/13 00:00:41;;;;;;;23.27;10.50;;;10.90;99.90;;;;;;5031331;28;20581;-73
2022/10/13 00:03:07;;;;;;;14.47;8.73;;;10.90;99.90;;;;;;5032706;28;20038;-73
2022/10/13 00:05:33;;;;;;;18.50;9.70;;;10.90;99.90;;;;;;5032822;28;20068;-73
2022/10/13 00:07:59;;;;;;;21.37;10.00;;;10.90;99.90;;;;;;5090118;22;20045;-84
2022/10/13 00:10:26;;;;;;;17.53;10.00;;;10.90;99.90;;;;;;5054113;28;20021;-84
2022/10/13 00:12:52;;;;;;;16.43;9.47;;;11.00;99.90;;;;;;5054924;28;20036;-84
2022/10/13 00:15:21;;;;;;;16.97;9.33;;;11.00;99.90;;;;;;5071522;28;20540;-86
2022/10/13 00:17:47;;;;;;;21.10;10.37;;;11.00;99.90;;;;;;5072470;28;20100;-84
2022/10/13 00:20:12;;;;;;;15.97;9.33;;;10.90;99.90;;;;;;5072386;28;20052;-84
2022/10/13 00:22:38;;;;;;;16.80;9.83;;;10.90;99.90;;;;;;5072340;28;20043;-84
2022/10/13 00:25:05;;;;;;;18.97;10.33;;;10.90;99.90;;;;;;5054420;28;20035;-84
2022/10/13 00:27:30;;;;;;;21.33;9.83;;;10.80;99.90;;;;;;5054270;28;20055;-84
2022/10/13 00:29:56;;;;;;;19.87;9.70;;;10.80;99.90;;;;;;5054163;28;20492;-84
2022/10/13 00:32:22;;;;;;;17.23;9.70;;;10.80;99.90;;;;;;5054363;28;20032;-85
2022/10/13 00:34:48;;;;;;;21.50;10.90;;;10.80;99.90;;;;;;5054458;28;20031;-84
2022/10/13 00:37:15;;;;;;;20.63;10.10;;;10.70;99.90;;;;;;5054217;28;20021;-86
2022/10/13 00:39:40;;;;;;;19.67;10.20;;;10.70;99.90;;;;;;5071316;28;20028;-86
2022/10/13 00:42:10;;;;;;;17.57;9.30;;;10.70;99.90;;;;;;5071661;28;20031;-86
2022/10/13 00:44:55;;;;;;;15.03;9.20;;;10.70;99.90;;;;;;5054366;28;20041;-86
2022/10/13 00:47:21;;;;;;;19.50;10.30;;;10.70;99.90;;;;;;5053773;28;20036;-86
2022/10/13 00:49:48;;;;;;;18.67;10.80;;;10.80;99.90;;;;;;5053799;28;20667;-86
2022/10/13 00:52:16;;;;;;;22.03;10.50;;;10.80;99.90;;;;;;5071595;28;20032;-85
2022/10/13 00:54:42;;;;;;;14.73;8.83;;;10.90;99.90;;;;;;5053992;28;20029;-86
2022/10/13 00:57:09;;;;;;;18.47;10.57;;;10.90;99.90;;;;;;5071687;28;20099;-85
2022/10/13 00:59:37;;;;;;;15.97;9.43;;;10.90;99.90;;;;;;5071517;28;20021;-85
2022/10/13 01:02:03;;;;;;;18.40;9.60;;;10.90;99.90;;;;;;5071607;28;20086;-86
2022/10/13 01:04:36;;;;;;;18.60;9.97;;;10.90;99.90;;;;;;5071585;28;20038;-86
2022/10/13 01:07:04;;;;;;;18.03;10.70;;;10.90;99.90;;;;;;5053488;28;20492;-86
2022/10/13 01:09:36;;;;;;;16.73;9.77;;;10.90;99.90;;;;;;5053520;28;20556;-86
2022/10/13 01:12:16;;;;;;;16.13;9.37;;;10.90;99.90;;;;;;5071384;28;20037;-86
2022/10/13 01:14:51;;;;;;;21.57;10.50;;;10.90;99.90;;;;;;5071589;28;20119;-85
2022/10/13 01:17:28;;;;;;;15.57;9.73;;;11.00;99.90;;;;;;5053486;28;20025;-86
2022/10/13 01:20:04;;;;;;;17.63;9.00;;;10.90;99.90;;;;;;5071212;28;20064;-85
2022/10/13 01:22:48;;;;;;;18.87;9.87;;;10.90;99.90;;;;;;5053606;28;20063;-86
2022/10/13 01:25:33;;;;;;;19.80;10.57;;;10.90;99.90;;;;;;5053272;28;20377;-85
2022/10/13 01:28:28;;;;;;;15.53;9.80;;;10.90;99.90;;;;;;5071074;28;20073;-85
2022/10/13 01:31:02;;;;;;;17.57;10.30;;;10.90;99.90;;;;;;5053108;28;20036;-85
2022/10/13 01:33:42;;;;;;;18.77;10.53;;;11.00;99.90;;;;;;5071217;28;20036;-85
2022/10/13 01:36:22;;;;;;;21.50;10.30;;;11.00;99.90;;;;;;5071119;28;20115;-85
2022/10/13 01:39:32;;;;;;;18.77;10.17;;;11.00;99.90;;;;;;5071129;28;20028;-85
2022/10/13 01:42:11;;;;;;;17.93;9.50;;;11.00;99.90;;;;;;5008804;28;20438;-85
2022/10/13 01:44:43;;;;;;;16.63;9.60;;;11.00;99.90;;;;;;5064112;28;20166;-85
2022/10/13 01:47:11;;;;;;;17.53;9.60;;;11.00;99.90;;;;;;5070870;28;20029;-85
2022/10/13 01:49:38;;;;;;;15.77;9.47;;;11.00;99.90;;;;;;5070797;28;20034;-86
2022/10/13 01:52:09;;;;;;;17.20;10.80;;;11.00;99.90;;;;;;5070587;28;20036;-85
2022/10/13 01:54:35;;;;;;;17.23;9.73;;;11.10;99.90;;;;;;5070846;28;20495;-86
2022/10/13 01:57:01;;;;;;;17.90;9.57;;;11.10;99.90;;;;;;5070703;28;20099;-85
2022/10/13 01:59:31;;;;;;;19.33;10.10;;;11.10;99.90;;;;;;5052831;28;20103;-86
2022/10/13 02:02:19;;;;;;;19.17;10.73;;;11.10;99.90;;;;;;5053117;28;20112;-85
2022/10/13 02:05:08;;;;;;;16.73;10.38;;;11.10;99.90;;;;;;5070971;28;20028;-86
2022/10/13 02:08:01;;;;;;;18.53;11.13;;;11.10;99.90;;;;;;5052384;28;20033;-85
2022/10/13 02:10:45;;;;;;;17.27;10.37;;;11.00;99.90;;;;;;5052607;28;20028;-85
2022/10/13 02:13:13;;;;;;;17.30;10.60;;;11.10;99.90;;;;;;5070628;28;20028;-85
2022/10/13 02:15:46;;;;;;;20.90;10.47;;;11.00;99.90;;;;;;5070588;28;20036;-85
2022/10/13 02:18:14;;;;;;;18.83;9.87;;;11.00;99.90;;;;;;5070713;28;20036;-85
2022/10/13 02:20:41;;;;;;;18.47;10.63;;;11.00;99.90;;;;;;5052648;28;20382;-85
2022/10/13 02:23:11;;;;;;;17.33;10.37;;;11.10;99.90;;;;;;5070630;28;20054;-85
2022/10/13 02:25:38;;;;;;;18.93;10.73;;;11.10;99.90;;;;;;5052522;28;20400;-85
2022/10/13 02:28:04;;;;;;;17.13;10.27;;;11.10;99.90;;;;;;5070502;28;20111;-85
2022/10/13 02:30:34;;;;;;;18.23;10.57;;;11.10;99.90;;;;;;5070509;28;20527;-85
2022/10/13 02:33:01;;;;;;;19.73;11.33;;;11.10;99.90;;;;;;5048785;28;20413;-86
2022/10/13 02:35:28;;;;;;;19.10;10.90;;;11.20;99.90;;;;;;5067917;28;20025;-85
2022/10/13 02:37:56;;;;;;;17.58;10.35;;;11.20;99.90;;;;;;5073257;28;20796;-86
2022/10/13 02:40:22;;;;;;;21.40;11.00;;;11.20;99.90;;;;;;5053058;28;20033;-86
2022/10/13 02:42:50;;;;;;;18.77;11.37;;;11.20;99.90;;;;;;5071732;28;20078;-86
2022/10/13 02:45:16;;;;;;;23.20;12.07;;;11.20;99.90;;;;;;5052026;28;20055;-86
2022/10/13 02:47:44;;;;;;;20.80;10.93;;;11.20;99.90;;;;;;5052211;28;20033;-87
2022/10/13 02:50:40;;;;;;;;;;;;;;;;;;;;;
2022/10/13 02:53:33;;;;;;;18.83;11.00;;;11.10;99.90;;;;;;5061227;28;20110;-88
2022/10/13 02:56:07;;;;;;;20.00;10.53;;;11.10;99.90;;;;;;5050608;28;20035;-88
2022/10/13 02:58:41;;;;;;;;;;;11.20;99.90;;;;;;5069139;28;20056;-88
2022/10/13 03:01:16;;;;;;;18.43;10.50;;;11.20;99.90;;;;;;5073363;28;20310;-88
2022/10/13 03:03:53;;;;;;;18.63;10.83;;;11.20;99.90;;;;;;5052357;28;20048;-87
2022/10/13 03:06:24;;;;;;;20.37;11.33;;;11.10;99.90;;;;;;5070529;28;20058;-87
2022/10/13 03:09:10;;;;;;;19.03;10.63;;;11.20;99.90;;;;;;5054447;28;20169;-89
2022/10/13 03:11:37;;;;;;;19.07;10.60;;;11.20;99.90;;;;;;5071599;28;20025;-88
2022/10/13 03:14:03;;;;;;;21.87;11.60;;;11.20;99.90;;;;;;5071907;28;20384;-87
2022/10/13 03:16:29;;;;;;;17.93;11.90;;;11.30;99.90;;;;;;5053434;28;20422;-87
2022/10/13 03:18:55;;;;;;;17.03;10.27;;;11.20;99.90;;;;;;5071673;28;20503;-88
2022/10/13 03:21:21;;;;;;;19.80;10.53;;;11.30;99.90;;;;;;5051969;28;20062;-87
2022/10/13 03:23:49;;;;;;;24.63;11.73;;;11.30;99.90;;;;;;5071997;28;20032;-86
2022/10/13 03:26:17;;;;;;;23.63;10.90;;;11.30;99.90;;;;;;5071136;28;20040;-87
2022/10/13 03:28:49;;;;;;;19.40;10.40;;;11.30;99.90;;;;;;5071715;28;20039;-87
2022/10/13 03:31:16;;;;;;;20.03;11.50;;;11.30;99.90;;;;;;5053602;28;20024;-87
2022/10/13 03:33:43;;;;;;;21.03;10.87;;;11.30;99.90;;;;;;5071655;28;20033;-87
2022/10/13 03:36:12;;;;;;;19.73;10.60;;;11.30;99.90;;;;;;5052178;28;20639;-87
2022/10/13 03:38:39;;;;;;;18.83;10.90;;;11.30;99.90;;;;;;5071458;28;20032;-87
2022/10/13 03:41:13;;;;;;;16.63;10.80;;;11.30;99.90;;;;;;5071504;28;20025;-88
2022/10/13 03:43:47;;;;;;;20.90;11.33;;;11.30;99.90;;;;;;5053520;28;20378;-87
2022/10/13 03:46:17;;;;;;;20.80;10.83;;;11.30;99.90;;;;;;5052720;28;20040;-87
2022/10/13 03:48:45;;;;;;;17.83;10.10;;;11.30;99.90;;;;;;5071268;28;20482;-88
2022/10/13 03:51:32;;;;;;;20.53;9.93;;;11.30;99.90;;;;;;5052621;28;20032;-90
2022/10/13 03:54:35;;;;;;;20.77;10.47;;;11.30;99.90;;;;;;5072183;28;20017;-89
2022/10/13 03:57:10;;;;;;;21.07;10.43;;;11.30;99.90;;;;;;5053020;28;20115;-87
2022/10/13 04:04:02;;;;;;;;;;;;;;;;;;;;;
2022/10/13 04:06:31;;;;;;;19.97;11.27;;;11.40;99.90;;;;;;5072719;28;20095;-88
2022/10/13 04:08:57;;;;;;;20.97;11.53;;;11.40;99.90;;;;;;5072938;28;20400;-92
2022/10/13 04:11:24;;;;;;;18.13;10.23;;;11.40;99.90;;;;;;5071147;28;20032;-87
2022/10/13 04:13:50;;;;;;;18.40;10.43;;;11.40;99.90;;;;;;5071214;28;20055;-84
2022/10/13 04:16:22;;;;;;;19.43;11.43;;;11.40;99.90;;;;;;5081298;22;20055;-69
2022/10/13 04:18:54;;;;;;;19.47;10.83;;;11.40;99.90;;;;;;5050982;28;20361;-69
2022/10/13 04:21:21;;;;;;;20.33;10.73;;;11.40;99.90;;;;;;5052580;28;20116;-68
2022/10/13 04:23:47;;;;;;;20.50;11.13;;;11.40;99.90;;;;;;5070743;28;20101;-68
2022/10/13 04:26:19;;;;;;;20.40;10.90;;;11.40;99.90;;;;;;5070632;28;20032;-68
2022/10/13 04:28:46;;;;;;;23.07;11.80;;;11.40;99.90;;;;;;5070581;28;20036;-68
2022/10/13 04:31:12;;;;;;;16.73;10.20;;;11.40;99.90;;;;;;5070066;28;20068;-69
2022/10/13 04:33:38;;;;;;;18.60;11.13;;;11.30;99.90;;;;;;5070494;28;20021;-69
2022/10/13 04:36:10;;;;;;;27.87;12.03;;;11.40;99.90;;;;;;5070230;28;20039;-67
2022/10/13 04:38:36;;;;;;;21.60;11.30;;;11.40;99.90;;;;;;5070433;28;20029;-70
2022/10/13 04:41:05;;;;;;;27.90;12.03;;;11.40;99.90;;;;;;5070550;28;20025;-71
2022/10/13 04:43:32;;;;;;;18.07;10.53;;;11.40;99.90;;;;;;5070529;28;20124;-71
2022/10/13 04:46:16;;;;;;;19.33;11.37;;;11.30;99.90;;;;;;5070460;28;20062;-69
2022/10/13 04:48:42;;;;;;;22.07;11.53;;;11.30;99.90;;;;;;5070113;28;20420;-71
2022/10/13 04:51:11;;;;;;;22.03;11.60;;;11.30;99.90;;;;;;5070273;28;20032;-70
2022/10/13 04:53:38;;;;;;;18.38;11.13;;;11.40;99.90;;;;;;5070493;28;20024;-69
2022/10/13 04:56:13;;;;;;;19.42;10.45;;;11.30;99.90;;;;;;5070520;28;20038;-72
2022/10/13 04:58:40;;;;;;;18.67;11.53;;;11.40;99.90;;;;;;5070420;28;20105;-73
2022/10/13 05:01:10;;;;;;;24.90;12.00;;;11.40;99.90;;;;;;5070658;28;20124;-69
2022/10/13 05:03:36;;;;;;;20.43;11.03;;;11.40;99.90;;;;;;5070490;28;20032;-70
2022/10/13 05:06:03;;;;;;;17.77;10.07;;;11.40;99.90;;;;;;5069503;28;20502;-70
2022/10/13 05:08:28;;;;;;;19.47;10.87;;;11.50;99.90;;;;;;5069717;28;20093;-69
2022/10/13 05:10:59;;;;;;;23.80;11.33;;;11.50;99.90;;;;;;5068904;28;20115;-70
2022/10/13 05:13:26;;;;;;;20.93;11.30;;;11.50;99.90;;;;;;5069361;28;20041;-70
2022/10/13 05:15:56;;;;;;;19.90;10.63;;;11.50;99.90;;;;;;5069403;28;20036;-70
2022/10/13 05:18:23;;;;;;;24.17;10.67;;;11.50;99.90;;;;;;5070182;28;20039;-70
2022/10/13 05:20:49;;;;;;;18.00;10.23;;;11.40;99.90;;;;;;5070893;28;20497;-70
2022/10/13 05:23:15;;;;;;;20.83;11.53;;;11.40;99.90;;;;;;5070811;28;20052;-70
2022/10/13 05:25:41;;;;;;;21.47;11.60;;;11.40;99.90;;;;;;5070532;28;20389;-70
2022/10/13 05:28:12;;;;;;;16.70;9.63;;;11.40;99.90;;;;;;5071011;28;20036;-70
2022/10/13 05:30:38;;;;;;;20.43;10.60;;;11.40;99.90;;;;;;5070905;28;20043;-70
2022/10/13 05:33:04;;;;;;;16.13;9.93;;;11.40;99.90;;;;;;5071061;28;20028;-70
2022/10/13 05:35:30;;;;;;;19.33;10.97;;;11.40;99.90;;;;;;5071255;28;20036;-70
2022/10/13 05:37:55;;;;;;;21.27;10.83;;;11.40;99.90;;;;;;5071285;28;20043;-70
2022/10/13 05:40:22;;;;;;;22.30;11.17;;;11.40;99.90;;;;;;5071420;28;20036;-71
2022/10/13 05:42:54;;;;;;;25.13;11.40;;;11.40;99.90;;;;;;5054304;28;20024;-70
2022/10/13 05:45:22;;;;;;;21.43;10.63;;;11.40;99.90;;;;;;5071285;28;20200;-70
2022/10/13 05:47:48;;;;;;;25.27;11.43;;;11.40;99.90;;;;;;5071113;28;20032;-71
2022/10/13 05:50:14;;;;;;;18.37;11.10;;;11.40;99.90;;;;;;5053273;28;20535;-71
2022/10/13 05:52:41;;;;;;;22.10;11.30;;;11.40;99.90;;;;;;5071025;28;20086;-70
2022/10/13 05:55:12;;;;;;;20.60;10.83;;;11.40;99.90;;;;;;5071174;28;20104;-73
2022/10/13 05:57:45;;;;;;;21.27;11.40;;;11.40;99.90;;;;;;5071039;28;20036;-71
2022/10/13 06:00:14;;;;;;;22.17;11.00;;;11.40;99.90;;;;;;5071038;28;20074;-70
2022/10/13 06:02:53;;;;;;;21.15;10.48;;;11.40;99.90;;;;;;5070771;28;20032;-70
2022/10/13 06:05:22;;;;;;;19.73;10.55;;;11.40;99.90;;;;;;5071121;28;20064;-71
2022/10/13 06:07:53;;;;;;;18.47;10.33;;;11.40;99.90;;;;;;5092173;22;20466;-87
2022/10/13 06:10:19;;;;;;;27.83;11.83;;;11.40;99.90;;;;;;5052485;28;20033;-88
2022/10/13 06:12:45;;;;;;;20.60;10.93;;;11.40;99.90;;;;;;5052606;28;20374;-88
2022/10/13 06:15:11;;;;;;;20.63;10.37;;;11.50;99.90;;;;;;5070836;28;20025;-88
2022/10/13 06:17:38;;;;;;;20.97;11.20;;;11.40;99.90;;;;;;5048700;28;20028;-88
2022/10/13 06:20:06;;;;;;;21.90;11.80;;;11.50;99.90;;;;;;5091105;28;20032;-88
2022/10/13 06:22:33;;;;;;;26.47;12.67;;;11.50;99.90;;;;;;5090954;28;20039;-88
2022/10/13 06:24:59;;;;;;;24.47;12.83;;;11.50;99.90;;;;;;5072983;28;20092;-87
2022/10/13 06:27:25;;;;;;;23.17;10.75;;;11.50;99.90;;;;;;5090620;28;20042;-88
2022/10/13 06:29:52;;;;;;;23.60;10.87;;;11.50;99.90;;;;;;5073173;28;20024;-87
2022/10/13 06:32:18;;;;;;;20.30;10.73;;;11.50;99.90;;;;;;5090854;28;20489;-88
2022/10/13 06:34:44;;;;;;;17.77;10.43;;;11.50;99.90;;;;;;5091076;28;20024;-87
2022/10/13 06:37:10;;;;;;;22.67;11.30;;;11.50;99.90;;;;;;5090638;28;20040;-88
2022/10/13 06:39:35;;;;;;;21.47;11.10;;;11.50;99.90;;;;;;5075306;28;20032;-87
2022/10/13 06:42:03;;;;;;;28.07;13.73;;;11.50;99.90;;;;;;5094623;28;20035;-88
2022/10/13 06:44:31;;;;;;;23.53;11.97;;;11.50;99.90;;;;;;5095010;28;20024;-87
2022/10/13 06:47:02;;;;;;;22.27;11.60;;;11.50;99.90;;;;;;5077002;28;20032;-88
2022/10/13 06:49:28;;;;;;;25.63;11.70;;;11.50;99.90;;;;;;5060781;28;20369;-88
2022/10/13 06:51:54;;;;;;;21.33;11.43;;;11.60;99.90;;;;;;5076347;28;20569;-87
2022/10/13 06:54:20;;;;;;;19.90;11.03;;;11.60;99.90;;;;;;5094528;28;20110;-87
2022/10/13 06:56:45;;;;;;;33.93;16.93;;;11.60;99.90;;;;;;5094211;28;20020;-88
2022/10/13 06:59:11;;;;;;;29.87;14.60;;;11.60;99.90;;;;;;5094546;28;20028;-87
2022/10/13 07:01:38;;;;;;;25.23;11.93;;;11.60;99.90;;;;;;5076305;28;20027;-87
2022/10/13 07:04:07;;;;;;;21.00;11.05;;;11.60;99.90;;;;;;5076138;28;20445;-88
2022/10/13 07:06:33;;;;;;;22.50;11.03;;;11.70;99.90;;;;;;5093972;28;20120;-88
2022/10/13 07:09:03;;;;;;;20.67;10.13;;;11.70;99.90;;;;;;5075884;28;20099;-87
2022/10/13 07:11:29;;;;;;;21.33;10.03;;;11.70;99.90;;;;;;5094133;28;20054;-88
2022/10/13 07:13:55;;;;;;;18.27;10.37;;;11.70;99.90;;;;;;5094516;28;20388;-85
2022/10/13 07:16:21;;;;;;;16.10;9.80;;;11.70;99.90;;;;;;5075751;28;20438;-85
2022/10/13 07:18:49;;;;;;;17.27;10.37;;;11.80;99.90;;;;;;5094019;28;20035;-85
2022/10/13 07:21:16;;;;;;;18.07;10.27;;;11.80;99.90;;;;;;5093833;28;20103;-85
2022/10/13 07:23:42;;;;;;;20.00;9.35;;;11.80;99.90;;;;;;5093868;28;20028;-85
2022/10/13 07:26:14;;;;;;;19.57;9.90;;;11.80;99.90;;;;;;5075646;28;20032;-85
2022/10/13 07:28:43;;;;;;;17.73;9.63;;;11.80;99.90;;;;;;5075538;28;20032;-86
2022/10/13 07:31:14;;;;;;;19.63;10.00;;;11.80;99.90;;;;;;5075638;28;20395;-86
2022/10/13 07:33:41;;;;;;;17.40;9.30;;;11.90;99.90;;;;;;5075625;28;20031;-86
2022/10/13 07:36:08;;;;;;;17.07;9.57;;;11.90;99.90;;;;;;5093395;28;20024;-86
2022/10/13 07:38:34;;;;;;;21.70;9.23;;;11.90;99.90;;;;;;5075329;28;20497;-85
2022/10/13 07:41:05;;;;;;;20.90;10.33;;;12.00;99.90;;;;;;5075497;28;20028;-86
2022/10/13 07:43:31;;;;;;;21.35;9.43;;;12.00;99.90;;;;;;5093670;28;20444;-86
2022/10/13 07:45:59;;;;;;;18.95;9.80;;;12.00;99.90;;;;;;5093484;28;20480;-86
2022/10/13 07:48:27;;;;;;;18.00;9.60;;;12.00;99.90;;;;;;5093262;28;20027;-86
2022/10/13 07:50:54;;;;;;;21.83;9.67;;;12.10;99.90;;;;;;5074668;28;20024;-86
2022/10/13 07:53:20;;;;;;;15.40;9.23;;;12.20;99.90;;;;;;5075205;28;20088;-86
2022/10/13 07:55:46;;;;;;;19.33;9.70;;;12.20;99.90;;;;;;5075042;28;20115;-86
2022/10/13 07:58:12;;;;;;;20.42;10.05;;;12.30;99.90;;;;;;5093589;28;20070;-86
2022/10/13 08:00:40;;;;;;;17.67;9.13;;;12.30;99.90;;;;;;5075481;28;20037;-86
2022/10/13 08:03:06;;;;;;;13.93;8.50;;;12.40;99.90;;;;;;5074895;28;20036;-86
2022/10/13 08:05:32;;;;;;;15.85;8.30;;;12.40;99.90;;;;;;5075478;28;20032;-87
2022/10/13 08:08:01;;;;;;;13.95;8.05;;;12.40;99.90;;;;;;5093048;28;20028;-86
2022/10/13 08:10:28;;;;;;;17.50;8.95;;;12.50;99.90;;;;;;5092989;28;20491;-86
2022/10/13 08:12:54;;;;;;;18.20;9.50;;;12.50;99.90;;;;;;5075133;28;20036;-87
2022/10/13 08:15:20;;;;;;;19.65;9.48;;;12.50;99.90;;;;;;5074892;28;20637;-86
2022/10/13 08:17:45;;;;;;;16.27;9.40;;;12.60;99.90;;;;;;5092625;28;20054;-86
2022/10/13 08:20:14;;;;;;;16.02;9.50;;;12.60;99.90;;;;;;5074370;28;20054;-86
2022/10/13 08:22:43;;;;;;;20.40;9.68;;;12.60;99.90;;;;;;5092892;28;20042;-87
2022/10/13 08:25:11;;;;;;;15.82;8.90;;;12.60;99.90;;;;;;5093070;28;20028;-86
2022/10/13 08:27:37;;;;;;;17.27;9.40;;;12.60;99.90;;;;;;5092608;28;20034;-86
2022/10/13 08:30:06;;;;;;;18.02;9.40;;;12.60;99.90;;;;;;5074515;28;20032;-86
2022/10/13 08:32:32;;;;;;;17.45;8.90;;;12.60;99.90;;;;;;5092656;28;20035;-87
2022/10/13 08:34:58;;;;;;;18.80;9.25;;;12.60;99.90;;;;;;5092521;28;20396;-87
2022/10/13 08:37:24;;;;;;;13.90;8.45;;;12.70;99.90;;;;;;5092280;28;20024;-87
2022/10/13 08:39:55;;;;;;;15.35;8.73;;;12.70;99.90;;;;;;5092218;28;20055;-86
2022/10/13 08:42:21;;;;;;;14.18;8.45;;;12.70;99.90;;;;;;5074400;28;20496;-87
2022/10/13 08:44:51;;;;;;;16.33;9.10;;;12.70;99.90;;;;;;5074309;28;20230;-86
2022/10/13 08:47:26;;;;;;;18.40;9.27;;;12.80;99.90;;;;;;5074197;28;20070;-86
2022/10/13 08:49:55;;;;;;;18.15;9.40;;;12.80;99.90;;;;;;5092303;28;20057;-87
2022/10/13 08:52:24;;;;;;;15.55;8.93;;;12.80;99.90;;;;;;5057458;28;20032;-86
2022/10/13 08:54:52;;;;;;;15.45;9.13;;;12.80;99.90;;;;;;5092278;28;20055;-86
2022/10/13 08:57:25;;;;;;;15.05;9.07;;;12.90;99.90;;;;;;5091812;28;20502;-87
2022/10/13 08:59:53;;;;;;;17.98;9.30;;;12.90;99.90;;;;;;5074222;28;20020;-87
2022/10/13 09:02:29;;;;;;;15.98;9.02;;;13.00;99.90;;;;;;5073016;28;20496;-86
2022/10/13 09:04:57;;;;;;;17.02;8.63;;;13.00;99.90;;;;;;5073810;28;20043;-86
2022/10/13 09:07:30;;;;;;;17.10;9.20;;;13.00;99.90;;;;;;5091730;28;20039;-86
2022/10/13 09:09:56;;;;;;;18.80;9.65;;;13.10;99.90;;;;;;5073816;28;20027;-86
2022/10/13 09:12:24;;;;;;;15.68;8.82;;;13.10;99.90;;;;;;5073843;28;20492;-86
2022/10/13 09:14:58;;;;;;;15.90;9.80;;;13.20;99.90;;;;;;5092090;28;20109;-86
2022/10/13 09:17:25;;;;;;;21.75;10.07;;;13.20;99.90;;;;;;5073503;28;20028;-86
2022/10/13 09:20:19;;;;;;;19.08;9.50;;;13.20;99.90;;;;;;5091572;28;20027;-86
2022/10/13 09:23:02;;;;;;;18.85;9.13;;;13.30;99.90;;;;;;5091798;28;20043;-86
2022/10/13 09:25:28;;;;;;;17.63;9.05;;;13.40;99.90;;;;;;5091753;28;20039;-87
2022/10/13 09:27:59;;;;;;;16.10;8.30;;;13.40;99.90;;;;;;5091477;28;20032;-87
2022/10/13 09:30:31;;;;;;;17.42;8.93;;;13.50;99.90;;;;;;5073390;28;20697;-87
2022/10/13 09:33:12;;;;;;;13.70;8.13;;;13.50;99.90;;;;;;5091431;28;20036;-87
2022/10/13 09:35:47;;;;;;;16.55;9.07;;;13.50;99.90;;;;;;5073368;28;20020;-87
2022/10/13 09:38:16;;;;;;;19.27;9.50;;;13.60;99.90;;;;;;5091458;28;20385;-87
2022/10/13 09:41:10;;;;;;;18.25;8.65;;;13.60;99.90;;;;;;5091422;28;20031;-86
2022/10/13 09:43:45;;;;;;;19.15;9.73;;;13.70;99.90;;;;;;5091499;28;20412;-86
2022/10/13 09:46:45;;;;;;;19.27;10.02;;;13.80;99.90;;;;;;5074362;28;20111;-86
2022/10/13 09:49:36;;;;;;;19.67;9.65;;;13.80;99.90;;;;;;5073224;28;20476;-86
2022/10/13 09:52:11;;;;;;;17.70;9.63;;;13.80;99.90;;;;;;5073713;28;20039;-87
2022/10/13 09:54:49;;;;;;;16.33;9.18;;;13.80;99.90;;;;;;5073360;28;20020;-87
2022/10/13 09:57:20;;;;;;;18.00;9.55;;;13.80;99.90;;;;;;5073118;28;20032;-87
2022/10/13 09:59:50;;;;;;;16.77;9.00;;;13.90;99.90;;;;;;5073164;28;20039;-87
2022/10/13 10:02:23;;;;;;;15.60;8.75;;;13.80;99.90;;;;;;5091463;28;20030;-87
2022/10/13 10:04:53;;;;;;;14.77;8.75;;;13.90;99.90;;;;;;5074150;28;20024;-87
2022/10/13 10:07:27;;;;;;;15.80;8.95;;;13.90;99.90;;;;;;5091174;28;20081;-87
2022/10/13 10:10:03;;;;;;;15.13;8.73;;;13.90;99.90;;;;;;5057053;28;20028;-87
2022/10/13 10:12:35;;;;;;;19.90;9.35;;;13.90;99.90;;;;;;5074350;28;20380;-87
2022/10/13 10:15:16;;;;;;;18.73;8.75;;;13.90;99.90;;;;;;5095756;28;20031;-87
2022/10/13 10:17:57;;;;;;;16.70;8.88;;;13.90;99.90;;;;;;5095707;28;20020;-87
2022/10/13 10:20:40;;;;;;;20.42;8.73;;;13.90;99.90;;;;;;5095652;28;20046;-86
2022/10/13 10:23:20;;;;;;;16.58;8.63;;;14.00;99.90;;;;;;5077724;28;20095;-87
2022/10/13 10:26:14;;;;;;;15.40;8.38;;;14.00;99.90;;;;;;5095212;28;20028;-87
2022/10/13 10:29:04;;;;;;;16.30;7.70;;;14.10;99.90;;;;;;5083840;28;20040;-87
2022/10/13 10:32:10;;;;;;;14.60;7.60;;;14.10;99.90;;;;;;5095234;28;20024;-87
2022/10/13 10:34:44;;;;;;;13.38;7.60;;;14.20;99.90;;;;;;5095519;28;20024;-87
2022/10/13 10:37:16;;;;;;;15.18;8.45;;;14.30;99.90;;;;;;5076628;28;20503;-87
2022/10/13 10:39:53;;;;;;;17.58;9.23;;;14.30;99.90;;;;;;5077247;28;20035;-87
2022/10/13 10:42:54;;;;;;;16.67;8.57;;;14.40;99.90;;;;;;5077336;28;20035;-86
2022/10/13 10:45:26;;;;;;;17.60;7.88;;;14.50;99.90;;;;;;5095514;28;20035;-87
2022/10/13 10:48:15;;;;;;;14.25;7.95;;;14.60;99.90;;;;;;5095858;28;20492;-87
2022/10/13 10:50:41;;;;;;;19.52;8.30;;;14.60;99.90;;;;;;5095174;28;20060;-87
2022/10/13 10:53:12;;;;;;;23.20;8.57;;;14.60;99.90;;;;;;5094575;28;20507;-87
2022/10/13 10:55:59;;;;;;;13.20;7.93;;;14.70;99.90;;;;;;5094455;28;20035;-87
2022/10/13 10:58:44;;;;;;;14.35;7.47;;;14.80;99.90;;;;;;5094436;28;20035;-87
2022/10/13 11:01:10;;;;;;;16.42;8.00;;;14.80;99.90;;;;;;5076285;28;20099;-86
2022/10/13 11:03:50;;;;;;;16.15;7.80;;;14.80;99.90;;;;;;5094569;28;20099;-87
2022/10/13 11:06:16;;;;;;;14.43;8.18;;;14.80;99.90;;;;;;5075872;28;20024;-87
2022/10/13 11:08:48;;;;;;;14.40;8.40;;;14.80;99.90;;;;;;5075929;28;20042;-87
2022/10/13 11:11:24;;;;;;;15.63;8.50;;;14.80;99.90;;;;;;5075914;28;20044;-87
2022/10/13 11:14:05;;;;;;;15.90;8.02;;;14.80;99.90;;;;;;5076411;28;20099;-87
2022/10/13 11:16:36;;;;;;;12.68;7.50;;;14.80;99.90;;;;;;5093919;28;20038;-87
2022/10/13 11:19:07;;;;;;;15.77;8.18;;;14.80;99.90;;;;;;5076538;28;20078;-87
2022/10/13 11:21:58;;;;;;;14.38;7.63;;;14.80;99.90;;;;;;5075979;28;20488;-87
2022/10/13 11:24:32;;;;;;;17.98;8.95;;;14.80;99.90;;;;;;5092978;28;20039;-87
2022/10/13 11:27:08;;;;;;;16.42;8.90;;;14.80;99.90;;;;;;5093782;28;20028;-87
2022/10/13 11:30:00;;;;;;;14.32;8.65;;;14.80;99.90;;;;;;5075567;28;20476;-87
2022/10/13 11:32:40;;;;;;;21.90;8.45;;;14.80;99.90;;;;;;5072148;28;20040;-87
2022/10/13 11:35:08;;;;;;;12.77;7.43;;;14.80;99.90;;;;;;5093759;28;20028;-87
2022/10/13 11:38:06;;;;;;;16.52;9.10;;;14.70;99.90;;;;;;5075227;28;20396;-87
2022/10/13 11:40:59;;;;;;;19.92;8.60;;;14.70;99.90;;;;;;5075545;28;20036;-87
2022/10/13 11:43:52;;;;;;;15.45;8.73;;;14.70;99.90;;;;;;5093762;28;20028;-87
2022/10/13 11:46:56;;;;;;;15.80;8.20;;;14.70;99.90;;;;;;5093358;28;20050;-86
2022/10/13 11:49:51;;;;;;;17.00;8.30;;;14.70;99.90;;;;;;5093347;28;20024;-86
2022/10/13 11:52:38;;;;;;;17.50;8.85;;;14.70;99.90;;;;;;5093399;28;20085;-87
2022/10/13 11:55:16;;;;;;;15.15;8.15;;;14.70;99.90;;;;;;5093714;28;20499;-87
2022/10/13 11:57:42;;;;;;;13.38;7.57;;;14.70;99.90;;;;;;5075060;28;20028;-87
2022/10/13 12:00:17;;;;;;;16.33;8.80;;;14.70;99.90;;;;;;5093241;28;20031;-86
2022/10/13 12:02:49;;;;;;;16.63;7.93;;;14.70;99.90;;;;;;5093289;28;20020;-87
2022/10/13 12:05:25;;;;;;;14.65;7.78;;;14.70;99.90;;;;;;5075750;28;20024;-87
2022/10/13 12:07:54;;;;;;;16.98;8.07;;;14.70;99.90;;;;;;5094891;22;20519;-80
2022/10/13 12:10:23;;;;;;;15.68;8.13;;;14.60;99.90;;;;;;5072152;28;20032;-80
2022/10/13 12:12:49;;;;;;;13.75;7.63;;;14.60;99.90;;;;;;5054608;28;20036;-80
2022/10/13 12:15:32;;;;;;;14.88;6.97;;;14.60;99.90;;;;;;5071289;28;20060;-80
2022/10/13 12:17:58;;;;;;;19.15;8.20;;;14.60;99.90;;;;;;5072583;28;20032;-80
2022/10/13 12:20:31;;;;;;;15.98;6.63;;;14.60;99.90;;;;;;5072262;28;20035;-80
2022/10/13 12:22:57;;;;;;;13.57;6.40;;;14.60;99.90;;;;;;5072555;28;20035;-80
2022/10/13 12:25:29;;;;;;;14.00;6.78;;;14.50;99.90;;;;;;5054586;28;20032;-80
2022/10/13 12:27:59;;;;;;;12.23;6.55;;;14.50;99.90;;;;;;5072035;28;20025;-80
2022/10/13 12:30:35;;;;;;;11.52;6.30;;;14.50;99.90;;;;;;5072027;28;20035;-80
2022/10/13 12:33:03;;;;;;;11.13;6.05;;;14.40;99.90;;;;;;5072336;28;20078;-80
2022/10/13 12:35:32;;;;;;;12.88;6.55;;;14.40;99.90;;;;;;5072084;28;20036;-80
2022/10/13 12:38:01;;;;;;;13.32;6.05;;;14.40;99.90;;;;;;5071940;28;20491;-80
2022/10/13 12:40:28;;;;;;;12.38;6.28;;;14.30;99.90;;;;;;5072121;28;20029;-80
2022/10/13 12:42:54;;;;;;;12.07;6.65;;;14.30;99.90;;;;;;5072063;28;20028;-80
2022/10/13 12:45:24;;;;;;;12.77;6.28;;;14.30;99.90;;;;;;5072046;28;20153;-81
2022/10/13 12:47:52;;;;;;;10.50;6.05;;;14.30;99.90;;;;;;5071817;28;20028;-80
2022/10/13 12:50:21;;;;;;;11.63;6.00;;;14.30;99.90;;;;;;5071760;28;20040;-80
2022/10/13 12:52:47;;;;;;;13.48;6.82;;;14.40;99.90;;;;;;5071819;28;20130;-80
2022/10/13 12:55:17;;;;;;;12.80;7.55;;;14.30;99.90;;;;;;5054285;28;20036;-80
2022/10/13 12:57:45;;;;;;;14.00;7.15;;;14.30;99.90;;;;;;5053674;28;20443;-81
2022/10/13 13:00:25;;;;;;;12.48;7.07;;;14.30;99.90;;;;;;5053715;28;20032;-81
2022/10/13 13:03:05;;;;;;;11.10;6.80;;;14.30;99.90;;;;;;5054012;28;20037;-80